createdAt,value
2019-03-05T00:00:32.478Z,53.10
2019-03-05T00:05:38.038Z,54.00
2019-03-05T00:10:43.500Z,56.90
2019-03-05T00:15:50.438Z,54.70
2019-03-05T00:20:55.879Z,56.90
2019-03-05T00:26:01.307Z,56.10
2019-03-05T00:31:09.719Z,56.10
2019-03-05T00:36:24.940Z,56.70
2019-03-05T00:41:33.369Z,57.10
2019-03-05T00:47:02.418Z,58.10
2019-03-05T00:52:10.959Z,58.10
2019-03-05T00:57:31.305Z,57.80
2019-03-05T01:02:51.687Z,57.70
2019-03-05T01:07:57.151Z,57.70
2019-03-05T01:13:02.822Z,57.90
2019-03-05T01:18:08.369Z,57.30
2019-03-05T01:23:13.835Z,57.00
2019-03-05T01:28:19.231Z,56.40
2019-03-05T01:33:26.260Z,56.20
2019-03-05T01:38:33.264Z,56.30
2019-03-05T01:43:38.652Z,57.00
2019-03-05T01:48:43.988Z,56.70
2019-03-05T01:53:49.454Z,56.50
2019-03-05T01:58:54.785Z,55.80
2019-03-05T02:04:00.152Z,56.50
2019-03-05T02:09:07.907Z,56.40
2019-03-05T02:14:13.702Z,55.80
2019-03-05T02:19:45.129Z,56.60
2019-03-05T02:25:23.964Z,56.00
2019-03-05T02:30:47.458Z,56.40
2019-03-05T02:36:07.755Z,55.60
2019-03-05T02:41:19.034Z,55.30
2019-03-05T02:46:33.201Z,55.80
2019-03-05T02:51:41.754Z,54.80
2019-03-05T02:57:06.474Z,55.20
2019-03-05T03:02:14.667Z,54.70
2019-03-05T03:07:19.992Z,55.50
2019-03-05T03:12:25.322Z,54.30
2019-03-05T03:17:30.695Z,54.90
2019-03-05T03:22:36.154Z,54.50
2019-03-05T03:27:41.957Z,53.70
2019-03-05T03:32:47.371Z,54.60
2019-03-05T03:37:52.977Z,53.90
2019-03-05T03:42:58.986Z,54.30
2019-03-05T03:48:04.622Z,54.50
2019-03-05T03:53:10.101Z,54.70
2019-03-05T03:58:15.655Z,54.70
2019-03-05T04:03:21.144Z,54.30
2019-03-05T04:08:26.711Z,54.80
2019-03-05T04:13:32.082Z,54.80
2019-03-05T04:18:37.480Z,54.80
2019-03-05T04:23:43.389Z,55.30
2019-03-05T04:28:48.763Z,55.60
2019-03-05T04:33:54.089Z,56.30
2019-03-05T04:38:59.448Z,55.60
2019-03-05T04:44:04.942Z,56.10
2019-03-05T04:49:11.896Z,56.70
2019-03-05T04:54:17.234Z,56.70
2019-03-05T04:59:22.567Z,57.00
2019-03-05T05:04:27.898Z,56.20
2019-03-05T05:09:33.237Z,56.30
2019-03-05T05:14:38.684Z,56.40
2019-03-05T05:19:44.082Z,56.60
2019-03-05T05:24:49.415Z,56.20
2019-03-05T05:29:54.751Z,56.50
2019-03-05T05:35:00.271Z,56.00
2019-03-05T05:40:26.862Z,55.70
2019-03-05T05:45:44.212Z,56.00
2019-03-05T05:50:49.630Z,55.30
2019-03-05T05:55:55.038Z,55.10
2019-03-05T06:01:02.219Z,54.80
2019-03-05T06:06:07.811Z,54.70
2019-03-05T06:11:13.182Z,54.70
2019-03-05T06:16:19.722Z,53.50
2019-03-05T06:21:25.286Z,52.60
2019-03-05T06:26:30.750Z,50.10
2019-03-05T06:31:36.159Z,46.70
2019-03-05T06:36:50.241Z,45.20
2019-03-05T06:41:55.655Z,45.60
2019-03-05T06:47:01.135Z,48.80
2019-03-05T06:52:06.546Z,50.90
2019-03-05T06:57:11.893Z,49.40
2019-03-05T07:02:17.299Z,51.10
2019-03-05T07:07:22.627Z,50.90
2019-03-05T07:12:42.826Z,51.80
2019-03-05T07:17:54.198Z,51.70
2019-03-05T07:23:14.593Z,51.20
2019-03-05T07:28:19.926Z,50.50
2019-03-05T07:33:25.259Z,50.10
2019-03-05T07:38:30.747Z,50.90
2019-03-05T07:43:36.845Z,50.70
2019-03-05T07:48:42.381Z,51.00
2019-03-05T07:53:47.707Z,51.40
2019-03-05T07:58:53.024Z,51.90
2019-03-05T08:03:58.370Z,51.60
2019-03-05T08:09:23.536Z,51.10
2019-03-05T08:14:50.200Z,51.30
2019-03-05T08:19:55.577Z,51.80
2019-03-05T08:25:00.923Z,51.00
2019-03-05T08:30:15.072Z,51.00
2019-03-05T08:35:20.645Z,51.10
2019-03-05T08:40:26.079Z,51.50
2019-03-05T08:45:31.491Z,51.00
2019-03-05T08:50:36.829Z,51.50
2019-03-05T08:55:43.240Z,52.30
2019-03-05T09:00:48.720Z,51.90
2019-03-05T09:05:54.122Z,54.30
2019-03-05T09:10:59.562Z,58.60
2019-03-05T09:16:05.253Z,58.80
2019-03-05T09:21:10.649Z,56.00
2019-03-05T09:26:17.371Z,53.80
2019-03-05T09:31:22.767Z,52.70
2019-03-05T09:36:28.174Z,52.50
2019-03-05T09:41:33.583Z,50.90
2019-03-05T09:46:39.011Z,47.20
2019-03-05T09:51:44.337Z,47.00
2019-03-05T09:56:49.757Z,51.50
2019-03-05T10:01:56.285Z,53.10
2019-03-05T10:07:01.706Z,55.20
2019-03-05T10:12:07.125Z,61.60
2019-03-05T10:17:12.730Z,69.80
2019-03-05T10:22:18.144Z,71.70
2019-03-05T10:27:23.623Z,72.40
2019-03-05T10:32:29.111Z,69.60
2019-03-05T10:37:34.602Z,70.10
2019-03-05T10:42:41.320Z,65.30
2019-03-05T10:47:49.316Z,60.40
2019-03-05T10:52:54.819Z,55.60
2019-03-05T10:58:03.532Z,53.30
2019-03-05T11:03:11.479Z,57.40
2019-03-05T11:08:23.204Z,57.90
2019-03-05T11:13:28.777Z,57.70
2019-03-05T11:18:34.973Z,56.30
2019-03-05T11:23:40.403Z,55.80
2019-03-05T11:28:45.817Z,54.90
2019-03-05T11:33:51.340Z,54.80
2019-03-05T11:38:56.978Z,54.70
2019-03-05T11:44:02.626Z,53.10
2019-03-05T11:49:08.123Z,52.80
2019-03-05T11:54:13.570Z,52.50
2019-03-05T11:59:19.270Z,50.50
2019-03-05T12:04:24.667Z,49.50
2019-03-05T12:09:30.083Z,50.10
2019-03-05T12:14:35.611Z,47.50
2019-03-05T12:19:41.040Z,45.10
2019-03-05T12:24:47.798Z,43.60
2019-03-05T12:29:53.137Z,45.40
2019-03-05T12:34:59.151Z,45.20
2019-03-05T12:40:06.117Z,43.10
2019-03-05T12:45:13.786Z,48.30
2019-03-05T12:50:23.627Z,49.90
2019-03-05T12:55:29.306Z,49.60
2019-03-05T13:00:36.007Z,47.60
2019-03-05T13:05:41.369Z,46.50
2019-03-05T13:10:46.860Z,44.20
2019-03-05T13:15:52.860Z,43.80
2019-03-05T13:21:03.447Z,43.70
2019-03-05T13:26:07.632Z,42.70
2019-03-05T13:31:13.804Z,44.20
2019-03-05T13:36:19.263Z,44.30
2019-03-05T13:41:24.586Z,50.40
2019-03-05T13:46:30.371Z,50.00
2019-03-05T13:52:03.091Z,51.20
2019-03-05T13:57:32.182Z,51.70
2019-03-05T14:02:52.861Z,51.30
2019-03-05T14:08:19.867Z,49.40
2019-03-05T14:13:25.320Z,47.70
2019-03-05T14:18:31.260Z,47.30
2019-03-05T14:23:37.032Z,46.90
2019-03-05T14:28:42.435Z,45.00
2019-03-05T14:33:50.299Z,45.50
2019-03-05T14:38:54.963Z,44.50
2019-03-05T14:44:00.561Z,43.20
2019-03-05T14:49:06.025Z,41.60
2019-03-05T14:54:11.519Z,42.20
2019-03-05T14:59:16.916Z,42.40
2019-03-05T15:04:22.429Z,42.30
2019-03-05T15:09:27.981Z,43.80
2019-03-05T15:14:33.456Z,43.30
2019-03-05T15:19:38.848Z,43.40
2019-03-05T15:24:44.274Z,43.80
2019-03-05T15:29:49.675Z,43.90
2019-03-05T15:34:55.135Z,44.40
2019-03-05T15:40:01.236Z,44.30
2019-03-05T15:45:09.971Z,44.70
2019-03-05T15:50:17.612Z,44.00
2019-03-05T15:55:23.295Z,44.30
2019-03-05T16:00:31.341Z,45.10
2019-03-05T16:05:36.755Z,44.80
2019-03-05T16:10:42.142Z,45.80
2019-03-05T16:15:47.514Z,45.50
2019-03-05T16:20:53.906Z,45.00
2019-03-05T16:25:59.375Z,45.60
2019-03-05T16:31:07.732Z,45.50
2019-03-05T16:36:15.231Z,46.60
2019-03-05T16:41:28.835Z,46.30
2019-03-05T16:46:52.479Z,46.50
2019-03-05T16:52:15.707Z,45.70
2019-03-05T16:57:34.865Z,46.10
2019-03-05T17:02:47.835Z,46.10
2019-03-05T17:08:00.982Z,47.00
2019-03-05T17:13:06.623Z,46.50
2019-03-05T17:18:12.328Z,46.00
2019-03-05T17:23:17.809Z,45.90
2019-03-05T17:28:23.292Z,46.80
2019-03-05T17:33:28.804Z,50.50
2019-03-05T17:38:34.274Z,52.00
2019-03-05T17:43:39.871Z,52.90
2019-03-05T17:48:45.343Z,54.60
2019-03-05T17:53:50.957Z,55.60
2019-03-05T17:58:56.378Z,55.70
2019-03-05T18:04:01.996Z,55.70
2019-03-05T18:09:08.286Z,55.80
2019-03-05T18:14:15.299Z,56.20
2019-03-05T18:19:21.063Z,56.00
2019-03-05T18:24:26.546Z,56.40
2019-03-05T18:29:32.127Z,56.60
2019-03-05T18:34:37.651Z,56.40
2019-03-05T18:39:43.198Z,56.10
2019-03-05T18:44:48.564Z,55.90
2019-03-05T18:49:54.000Z,57.20
2019-03-05T18:55:00.479Z,56.00
2019-03-05T19:00:21.143Z,56.40
2019-03-05T19:05:26.644Z,56.00
2019-03-05T19:10:32.307Z,56.70
2019-03-05T19:15:38.431Z,57.10
2019-03-05T19:20:45.077Z,57.70
2019-03-05T19:25:50.705Z,58.20
2019-03-05T19:30:56.829Z,57.80
2019-03-05T19:36:02.312Z,58.40
2019-03-05T19:41:07.812Z,57.90
2019-03-05T19:46:14.172Z,57.90
2019-03-05T19:51:19.698Z,58.20
2019-03-05T19:56:25.236Z,58.30
2019-03-05T20:01:32.366Z,58.30
2019-03-05T20:06:37.865Z,58.30
2019-03-05T20:11:43.340Z,58.20
2019-03-05T20:16:49.999Z,59.10
2019-03-05T20:21:55.770Z,58.40
2019-03-05T20:27:01.745Z,59.10
2019-03-05T20:32:08.203Z,59.00
2019-03-05T20:37:13.825Z,59.30
2019-03-05T20:42:19.613Z,58.90
2019-03-05T20:47:25.119Z,59.10
2019-03-05T20:52:30.522Z,59.60
2019-03-05T20:57:35.935Z,60.00
2019-03-05T21:02:41.411Z,59.90
2019-03-05T21:07:47.589Z,60.70
2019-03-05T21:12:53.142Z,61.00
2019-03-05T21:17:58.819Z,60.70
2019-03-05T21:23:04.376Z,60.70
2019-03-05T21:28:11.102Z,61.30
2019-03-05T21:33:16.736Z,61.10
2019-03-05T21:38:22.227Z,61.00
2019-03-05T21:43:27.706Z,61.40
2019-03-05T21:48:33.122Z,61.00
2019-03-05T21:53:38.518Z,61.20
2019-03-05T21:58:44.006Z,61.50
2019-03-05T22:03:50.331Z,61.30
2019-03-05T22:08:55.736Z,61.80
2019-03-05T22:14:01.161Z,62.50
2019-03-05T22:19:06.576Z,61.50
2019-03-05T22:24:11.982Z,60.90
2019-03-05T22:29:17.357Z,61.90
2019-03-05T22:34:23.146Z,61.80
2019-03-05T22:39:28.562Z,60.80
2019-03-05T22:44:34.030Z,60.10
2019-03-05T22:49:39.439Z,61.50
2019-03-05T22:54:46.534Z,60.70
2019-03-05T22:59:53.095Z,61.50
2019-03-05T23:04:58.718Z,62.10
2019-03-05T23:10:07.129Z,62.10
2019-03-05T23:15:14.433Z,61.10
2019-03-05T23:20:20.019Z,60.00
2019-03-05T23:25:25.816Z,60.10
2019-03-05T23:30:31.357Z,60.90
2019-03-05T23:35:36.902Z,60.90
2019-03-05T23:40:42.314Z,60.70
2019-03-05T23:45:48.943Z,61.00
2019-03-05T23:50:54.340Z,60.70
2019-03-05T23:55:59.737Z,62.60
